M I D A S
Marine Information and Data Acquisition System
Tripno 1713 of the Zeeleeuw from 2009-06-22 07:20:52 to 2009-06-22 15:14:20
Back to CruiseResearch ActivitiesStationsMapUnderway DataData graphs

EquipmentUnitsComment
TimeDGPSUTC
LatitudeDGPSDM.mWGS84
LongitudeDGPSDM.mWGS84
TemperatureSBE03/SBE38deg celciusITS90
ConductivitySBE21S/mITS90
SalinitySBE21 Practical Salinity Units
ChlorophylAChelsea fluorimeterg/lCalibrated in Aceton
Missing or incorrect values are displayed as -999
Sea surface data collected by the RV Zeeleeuw from 2009-06-22 06:43:57 to 2009-06-22 15:30:18
Time Latitude Longitude Temperature Conductivity Salinity ChlorophylA
2009-06-22 06:45:02 51°13.663 2°55.96 19.5697 0.333497 1.91777 -0.095143
2009-06-22 06:46:02 51°13.662 2°55.96 19.5696 0.333497 1.917906 -0.129967
2009-06-22 06:47:02 51°13.662 2°55.96 19.5701 0.333497 1.918041 -0.129967
2009-06-22 06:48:02 51°13.662 2°55.96 19.5719 0.333497 1.918177 -0.129967
2009-06-22 06:49:02 51°13.662 2°55.959 19.5748 0.333497 1.918346 -0.129967
2009-06-22 06:50:02 51°13.663 2°55.96 19.5764 0.333497 1.918515 -0.129967
2009-06-22 06:51:02 51°13.663 2°55.96 19.5765 0.333497 1.918651 -0.129967
2009-06-22 06:52:02 51°13.663 2°55.96 19.5789 0.333497 1.91882 -0.129967
2009-06-22 06:53:02 51°13.663 2°55.96 19.5781 0.3336 1.919617 -0.129967
2009-06-22 06:54:01 51°13.663 2°55.961 19.5811 0.333497 1.919125 -0.129967
2009-06-22 06:55:02 51°13.662 2°55.959 19.5815 0.333497 1.919261 -0.129967
2009-06-22 06:56:01 51°13.662 2°55.96 19.5795 0.333497 1.91943 -0.129967
2009-06-22 06:57:02 51°13.662 2°55.96 19.5703 0.333497 1.919566 -0.095143
2009-06-22 06:58:01 51°13.663 2°55.961 19.5786 0.3336 1.920363 -0.129967
2009-06-22 06:59:01 51°13.663 2°55.961 19.5819 0.3336 1.920533 -0.129967
2009-06-22 07:00:02 51°13.663 2°55.961 19.5822 0.3336 1.920669 -0.129967
2009-06-22 07:01:01 51°13.662 2°55.96 19.5825 0.3336 1.920838 -0.129967
2009-06-22 07:02:01 51°13.664 2°55.96 19.5938 0.333703 1.921602 -0.129967
2009-06-22 07:03:01 51°13.663 2°55.96 19.5891 0.333703 1.921772 -0.129967
2009-06-22 07:04:02 51°13.663 2°55.96 19.595 0.333703 1.921942 -0.129967
2009-06-22 07:05:01 51°13.663 2°55.96 19.5948 0.3336 1.92145 -0.095143
2009-06-22 07:06:01 51°13.663 2°55.96 19.5983 0.3336 1.921654 -0.129967
2009-06-22 07:07:02 51°13.662 2°55.96 19.6057 0.3336 1.92179 -0.129967
2009-06-22 07:08:02 51°13.662 2°55.959 19.5795 0.3336 1.921926 -0.129967
2009-06-22 07:09:02 51°13.678 2°55.905 19.5883 0.333909 1.923947 -0.129967
2009-06-22 07:10:00 51°13.694 2°55.829 19.5966 0.333806 1.923522 -0.129967
2009-06-22 07:11:01 51°13.692 2°55.755 19.6029 0.3336 1.922368 -0.129967
2009-06-22 07:11:59 51°13.703 2°55.754 19.5772 0.333806 1.923795 -0.129967
2009-06-22 07:13:01 51°13.704 2°55.747 19.6182 0.333394 1.921451 -0.129967
2009-06-22 07:13:59 51°13.753 2°55.697 19.5914 0.3336 1.922776 -0.129967
2009-06-22 07:14:58 51°13.833 2°55.63 19.5449 0.333909 1.924798 -0.129967
2009-06-22 07:15:58 51°13.896 2°55.635 19.618 0.333909 1.925207 -0.129967
2009-06-22 07:16:58 51°13.934 2°55.638 19.6179 0.333909 1.925377 -0.129967
2009-06-22 07:17:58 51°13.945 2°55.632 19.6211 0.334012 1.92604 -0.129967
2009-06-22 07:18:58 51°13.959 2°55.614 19.6331 0.3336 1.923661 -0.129967
2009-06-22 07:19:58 51°14.025 2°55.541 19.6323 0.333394 1.922608 -0.129967
2009-06-22 07:20:58 51°14.136 2°55.419 19.6255 0.333497 1.923339 -0.129967
2009-06-22 07:21:58 51°14.251 2°55.266 19.63 0.3336 1.924138 -0.129967
2009-06-22 07:22:58 51°14.351 2°55.075 19.6381 0.333497 1.923646 -0.129967
2009-06-22 07:23:58 51°14.405 2°54.817 19.629 0.332983 1.920671 -0.129967
2009-06-22 07:24:58 51°14.372 2°54.501 19.5872 0.333394 1.923255 -0.129967
2009-06-22 07:25:58 51°14.31 2°54.184 19.604 0.333291 1.922899 -0.129967
2009-06-22 07:26:58 51°14.22 2°53.877 19.6096 0.333394 1.923698 -0.129967
2009-06-22 07:27:58 51°14.127 2°53.571 19.6125 0.333497 1.924464 -0.129967
2009-06-22 07:28:58 51°14.037 2°53.268 19.6157 0.333394 1.924039 -0.129967
2009-06-22 07:29:58 51°13.938 2°52.967 19.6054 0.333394 1.924176 -0.129967
2009-06-22 07:30:58 51°13.829 2°52.674 19.6171 0.333086 1.922458 -0.164791
2009-06-22 07:31:58 51°13.716 2°52.385 19.6014 0.3336 1.925776 -0.129967
2009-06-22 07:32:58 51°13.614 2°52.085 19.6326 0.333394 1.924756 -0.129967
2009-06-22 07:33:58 51°13.511 2°51.785 19.6374 0.333497 1.925522 -0.129967
2009-06-22 07:34:58 51°13.422 2°51.513 19.6314 0.33463 1.932586 -0.164791
2009-06-22 07:35:58 51°13.386 2°51.386 19.6406 0.334218 1.930238 -0.129967
2009-06-22 07:36:58 51°13.373 2°51.343 19.6591 0.333909 1.928828 -0.129967
2009-06-22 07:37:58 51°13.361 2°51.31 19.6586 0.333806 1.928301 -0.164791
2009-06-22 07:38:58 51°13.349 2°51.275 19.6831 0.333497 1.926547 -0.164791
2009-06-22 07:39:58 51°13.318 2°51.174 19.6758 0.333086 1.924164 -0.129967
2009-06-22 07:40:58 51°13.234 2°50.94 19.6556 0.333189 1.925102 -0.129967
2009-06-22 07:41:58 51°13.13 2°50.65 19.6975 0.333497 1.927095 -0.129967
2009-06-22 07:42:58 51°13.025 2°50.358 19.7047 0.333086 1.924711 -0.129967
2009-06-22 07:43:58 51°12.916 2°50.067 19.7189 0.333292 1.926142 -0.164791
2009-06-22 07:44:58 51°12.81 2°49.773 19.7229 0.333497 1.92754 -0.129967
2009-06-22 07:45:59 51°12.703 2°49.472 19.4353 0.335968 1.942912 -0.060319
2009-06-22 07:46:58 51°12.602 2°49.178 17.8584 3.964979 29.308136 4.153392
2009-06-22 07:47:58 51°12.501 2°48.878 17.6958 4.092455 30.811782 2.864902
2009-06-22 07:48:58 51°12.397 2°48.579 17.6262 4.141213 31.325798 2.307717
2009-06-22 07:49:58 51°12.294 2°48.284 17.5896 4.165802 31.574753 2.098773
2009-06-22 07:50:58 51°12.188 2°47.992 17.5542 4.176592 31.700825 2.133597
2009-06-22 07:51:58 51°12.084 2°47.7 17.5474 4.175555 31.705735 2.098773
2009-06-22 07:52:58 51°11.982 2°47.405 17.5463 4.178253 31.740438 2.203245
2009-06-22 07:53:58 51°11.884 2°47.105 17.5522 4.192052 31.856811 2.238069
2009-06-22 07:54:59 51°11.789 2°46.798 17.5424 4.19973 31.921936 2.272893
2009-06-22 07:55:58 51°11.716 2°46.49 17.5246 4.206889 31.988338 2.307717
2009-06-22 07:56:59 51°11.647 2°46.165 17.5036 4.214567 32.072433 2.377365
2009-06-22 07:57:57 51°11.582 2°45.853 17.4955 4.217058 32.109384 2.447013
2009-06-22 07:58:58 51°11.512 2°45.524 17.493 4.218199 32.12288 2.481837
2009-06-22 07:59:58 51°11.443 2°45.201 17.4838 4.224944 32.185295 2.447013
2009-06-22 08:00:58 51°11.371 2°44.879 17.4698 4.236358 32.290661 2.447013
2009-06-22 08:01:58 51°11.304 2°44.552 17.4627 4.244452 32.367848 2.516661
2009-06-22 08:02:58 51°11.234 2°44.225 17.4591 4.250262 32.421173 2.551485
2009-06-22 08:03:58 51°11.172 2°43.897 17.4576 4.254102 32.456443 2.586309
2009-06-22 08:04:58 51°11.143 2°43.56 17.4472 4.258356 32.49462 2.655957
2009-06-22 08:05:58 51°11.128 2°43.222 17.4402 4.265724 32.565769 2.795254
2009-06-22 08:06:58 51°11.113 2°42.912 17.434 4.271536 32.622408 2.969374
2009-06-22 08:07:58 51°11.096 2°42.604 17.4293 4.276102 32.665876 3.10867
2009-06-22 08:08:58 51°11.077 2°42.336 17.4229 4.278177 32.687459 3.178318
2009-06-22 08:09:58 51°11.058 2°42.174 17.4197 4.28129 32.717263 3.213142
2009-06-22 08:10:59 51°11.036 2°42.08 17.416 4.28347 32.7391 3.178318
2009-06-22 08:11:58 51°11.023 2°42.037 17.4167 4.285026 32.753686 3.10867
2009-06-22 08:12:58 51°11.01 2°41.997 17.4167 4.285649 32.760297 3.073846
2009-06-22 08:13:58 51°10.996 2°41.957 17.4165 4.286168 32.764082 3.073846
2009-06-22 08:14:58 51°10.982 2°41.916 17.413 4.287517 32.776898 3.004198
2009-06-22 08:15:58 51°10.967 2°41.873 17.4085 4.290111 32.801002 2.864902
2009-06-22 08:16:58 51°10.952 2°41.831 17.4048 4.297583 32.868088 2.725606
2009-06-22 08:17:59 51°10.929 2°41.752 17.41 4.299036 32.881154 2.412189
2009-06-22 08:18:58 51°10.877 2°41.565 17.4153 4.294781 32.840252 2.412189
2009-06-22 08:19:59 51°10.808 2°41.262 17.4171 4.292913 32.822348 2.586309
2009-06-22 08:20:58 51°10.748 2°40.94 17.4226 4.302046 32.897782 2.725606
2009-06-22 08:21:59 51°10.686 2°40.606 17.4166 4.310348 32.968089 2.864902
2009-06-22 08:22:58 51°10.625 2°40.283 17.4237 4.317198 33.025995 2.93455
2009-06-22 08:23:58 51°10.569 2°39.95 17.4277 4.320622 33.050712 3.004198
2009-06-22 08:24:58 51°10.512 2°39.617 17.4346 4.322698 33.066501 3.004198
2009-06-22 08:25:58 51°10.452 2°39.289 17.4524 4.323736 33.064932 2.899726
2009-06-22 08:26:59 51°10.387 2°38.96 17.45 4.330689 33.111963 2.864902
2009-06-22 08:27:58 51°10.323 2°38.641 17.4322 4.345115 33.245133 2.93455
2009-06-22 08:28:59 51°10.258 2°38.308 17.4145 4.357778 33.367962 2.969374
2009-06-22 08:29:58 51°10.194 2°37.987 17.3981 4.366497 33.453854 3.039022
2009-06-22 08:30:59 51°10.136 2°37.654 17.3716 4.375216 33.546461 3.143494
2009-06-22 08:31:58 51°10.1 2°37.324 17.3454 4.383831 33.638306 3.28279
2009-06-22 08:32:58 51°10.097 2°36.991 17.3108 4.392447 33.736289 3.526559
2009-06-22 08:33:59 51°10.161 2°36.683 17.2661 4.403658 33.867504 3.770327
2009-06-22 08:34:58 51°10.254 2°36.417 17.1975 4.411651 33.973339 3.944447
2009-06-22 08:35:59 51°10.399 2°36.232 17.1252 4.422655 34.131202 4.083744
2009-06-22 08:36:58 51°10.566 2°36.228 17.0834 4.427224 34.223776 4.083744
2009-06-22 08:37:59 51°10.727 2°36.346 17.0624 4.426082 34.241883 4.04892
2009-06-22 08:38:58 51°10.884 2°36.453 17.0651 4.415494 34.164532 4.536456
2009-06-22 08:39:58 51°11.047 2°36.556 17.0652 4.414352 34.149873 4.466808
2009-06-22 08:40:58 51°11.216 2°36.64 17.0728 4.408332 34.097754 4.188216
2009-06-22 08:41:58 51°11.385 2°36.718 17.0963 4.402311 34.033422 3.979271
2009-06-22 08:42:59 51°11.555 2°36.806 17.1239 4.397744 33.975619 3.874799
2009-06-22 08:43:58 51°11.721 2°36.893 17.1322 4.392657 33.91408 3.909623
2009-06-22 08:44:59 51°11.892 2°36.98 17.1266 4.384457 33.83854 4.04892
2009-06-22 08:45:58 51°12.058 2°37.064 17.1148 4.373143 33.748944 3.909623
2009-06-22 08:46:59 51°12.23 2°37.158 17.0966 4.361104 33.656433 3.561383
2009-06-22 08:47:58 51°12.396 2°37.242 17.0875 4.35114 33.581825 3.317614
2009-06-22 08:48:58 51°12.541 2°37.313 17.081 4.342733 33.516627 3.073846
2009-06-22 08:49:58 51°12.675 2°37.381 17.0843 4.33962 33.491761 3.039022
2009-06-22 08:50:58 51°12.802 2°37.431 17.0901 4.338686 33.48103 3.039022
2009-06-22 08:51:59 51°12.927 2°37.426 17.0967 4.339931 33.487103 3.039022
2009-06-22 08:52:58 51°13.057 2°37.418 17.0979 4.340242 33.485784 3.004198
2009-06-22 08:53:59 51°13.179 2°37.414 17.0958 4.341176 33.493175 3.004198
2009-06-22 08:54:58 51°13.285 2°37.409 17.0874 4.342733 33.509945 3.073846
2009-06-22 08:55:59 51°13.381 2°37.385 17.0753 4.345639 33.543715 3.213142
2009-06-22 08:56:58 51°13.482 2°37.347 17.0578 4.35031 33.591402 3.317614
2009-06-22 08:57:58 51°13.64 2°37.295 17.0236 4.355292 33.652552 3.561383
2009-06-22 08:58:59 51°13.826 2°37.254 16.9892 4.357369 33.702786 3.665855
2009-06-22 08:59:58 51°14.006 2°37.217 16.9382 4.357784 33.73942 3.839975
2009-06-22 09:00:59 51°14.19 2°37.172 16.8886 4.354671 33.749601 3.874799
2009-06-22 09:01:58 51°14.367 2°37.136 16.8501 4.347199 33.719965 3.909623
2009-06-22 09:02:59 51°14.551 2°37.107 16.8182 4.338896 33.681731 4.04892
2009-06-22 09:03:58 51°14.73 2°37.078 16.7843 4.330283 33.635333 4.083744
2009-06-22 09:04:59 51°14.917 2°37.046 16.7614 4.323122 33.597457 3.839975
2009-06-22 09:05:59 51°15.102 2°37.013 16.7414 4.315961 33.554141 3.665855
2009-06-22 09:06:59 51°15.288 2°36.981 16.7254 4.30932 33.511931 3.526559
2009-06-22 09:07:59 51°15.474 2°36.942 16.7169 4.303819 33.473555 3.352439
2009-06-22 09:08:58 51°15.657 2°36.911 16.7158 4.300499 33.451423 3.317614
2009-06-22 09:09:59 51°15.849 2°36.877 16.7135 4.300084 33.449835 3.317614
2009-06-22 09:10:58 51°16.034 2°36.84 16.714 4.300499 33.454119 3.387263
2009-06-22 09:11:59 51°16.189 2°36.806 16.7191 4.301121 33.455489 3.28279
2009-06-22 09:12:58 51°16.263 2°36.796 16.7143 4.301121 33.456837 3.178318
2009-06-22 09:13:59 51°16.329 2°36.785 16.7162 4.300499 33.452771 3.178318
2009-06-22 09:14:59 51°16.392 2°36.806 16.7141 4.299565 33.446671 3.10867
2009-06-22 09:15:59 51°16.468 2°36.804 16.7175 4.298631 33.437202 3.073846
2009-06-22 09:16:59 51°16.544 2°36.815 16.7123 4.297904 33.430212 3.004198
2009-06-22 09:17:58 51°16.568 2°36.82 16.7129 4.29614 33.41824 2.969374
2009-06-22 09:18:59 51°16.57 2°36.813 16.7113 4.295932 33.415762 3.004198
2009-06-22 09:19:58 51°16.566 2°36.804 16.7092 4.295621 33.414402 2.969374
2009-06-22 09:20:59 51°16.559 2°36.795 16.7016 4.294999 33.413028 2.969374
2009-06-22 09:21:58 51°16.551 2°36.786 16.6969 4.294168 33.411197 2.969374
2009-06-22 09:22:59 51°16.541 2°36.775 16.6933 4.292819 33.402158 2.93455
2009-06-22 09:23:59 51°16.533 2°36.769 16.6861 4.291055 33.391528 2.93455
2009-06-22 09:24:58 51°16.556 2°36.81 16.6844 4.290848 33.394437 2.899726
2009-06-22 09:25:59 51°16.636 2°36.745 16.6902 4.288772 33.379075 2.93455
2009-06-22 09:26:58 51°16.781 2°36.626 16.704 4.292508 33.401471 2.899726
2009-06-22 09:27:58 51°16.937 2°36.452 16.7126 4.292819 33.397444 2.899726
2009-06-22 09:28:58 51°17.08 2°36.245 16.7092 4.293546 33.396356 2.864902
2009-06-22 09:29:58 51°17.215 2°36.033 16.6932 4.293442 33.400166 2.795254
2009-06-22 09:30:59 51°17.341 2°35.81 16.643 4.296141 33.447229 2.795254
2009-06-22 09:31:59 51°17.446 2°35.573 16.5975 4.298424 33.510374 2.795254
2009-06-22 09:32:59 51°17.548 2°35.334 16.5717 4.299981 33.551061 2.830078
2009-06-22 09:33:58 51°17.654 2°35.102 16.5528 4.301435 33.585474 2.830078
2009-06-22 09:34:59 51°17.765 2°34.858 16.5391 4.302473 33.608821 2.864902
2009-06-22 09:35:58 51°17.877 2°34.622 16.5285 4.302992 33.62493 2.864902
2009-06-22 09:36:59 51°17.993 2°34.373 16.5134 4.303303 33.637873 2.899726
2009-06-22 09:37:59 51°18.108 2°34.128 16.5031 4.303615 33.651507 2.899726
2009-06-22 09:38:59 51°18.22 2°33.883 16.5008 4.305898 33.67898 2.93455
2009-06-22 09:39:59 51°18.334 2°33.643 16.499 4.311087 33.724362 3.039022
2009-06-22 09:40:59 51°18.445 2°33.403 16.5077 4.315965 33.764291 3.10867
2009-06-22 09:41:59 51°18.558 2°33.165 16.519 4.320427 33.796478 3.213142
2009-06-22 09:42:58 51°18.668 2°32.925 16.5213 4.323645 33.818451 3.213142
2009-06-22 09:43:59 51°18.782 2°32.674 16.5072 4.324163 33.822304 3.178318
2009-06-22 09:44:58 51°18.894 2°32.43 16.5008 4.322814 33.821474 3.10867
2009-06-22 09:45:59 51°19.011 2°32.18 16.4962 4.322711 33.825368 3.073846
2009-06-22 09:46:58 51°19.12 2°31.933 16.4894 4.323333 33.834248 3.073846
2009-06-22 09:47:59 51°19.234 2°31.683 16.4509 4.32323 33.843638 2.969374
2009-06-22 09:48:59 51°19.347 2°31.436 16.3983 4.320532 33.86125 2.899726
2009-06-22 09:49:59 51°19.463 2°31.188 16.3568 4.317212 33.875521 2.830078
2009-06-22 09:50:59 51°19.579 2°30.94 16.3495 4.315656 33.887383 2.795254
2009-06-22 09:51:59 51°19.697 2°30.705 16.3598 4.316797 33.896026 2.795254
2009-06-22 09:52:59 51°19.79 2°30.536 16.347 4.320326 33.924248 2.76043
2009-06-22 09:53:59 51°19.874 2°30.39 16.3433 4.323024 33.956937 2.830078
2009-06-22 09:54:59 51°19.943 2°30.276 16.3473 4.325204 33.976776 2.899726
2009-06-22 09:55:59 51°19.972 2°30.198 16.3485 4.326449 33.98564 2.969374
2009-06-22 09:56:58 51°19.981 2°30.134 16.3517 4.327072 33.988341 3.004198
2009-06-22 09:57:59 51°19.992 2°30.085 16.3606 4.327798 33.991261 3.004198
2009-06-22 09:58:59 51°19.996 2°30.096 16.3591 4.328213 33.991446 3.039022
2009-06-22 09:59:59 51°19.997 2°30.12 16.3567 4.328213 33.992138 3.039022
2009-06-22 10:00:59 51°19.997 2°30.148 16.353 4.32811 33.993996 3.073846
2009-06-22 10:01:59 51°19.997 2°30.182 16.3523 4.328006 33.996547 3.178318
2009-06-22 10:02:59 51°19.996 2°30.215 16.3537 4.328421 33.998116 3.178318
2009-06-22 10:03:59 51°19.996 2°30.245 16.3568 4.328628 34.002018 3.178318
2009-06-22 10:04:59 51°20.021 2°30.264 16.3572 4.328836 34.000378 3.143494
2009-06-22 10:05:59 51°20.064 2°30.332 16.3581 4.329355 33.998011 3.10867
2009-06-22 10:06:59 51°20.143 2°30.507 16.363 4.329355 33.999396 3.178318
2009-06-22 10:07:59 51°20.217 2°30.802 16.3442 4.329978 34.007636 3.247966
2009-06-22 10:08:59 51°20.248 2°31.135 16.3285 4.32977 34.023139 3.213142
2009-06-22 10:09:59 51°20.28 2°31.469 16.3345 4.329459 34.028031 3.213142
2009-06-22 10:10:59 51°20.313 2°31.798 16.3395 4.330704 34.036204 3.143494
2009-06-22 10:11:59 51°20.35 2°32.13 16.3468 4.334752 34.061373 3.143494
2009-06-22 10:12:59 51°20.363 2°32.464 16.3242 4.336309 34.07575 3.073846
2009-06-22 10:13:59 51°20.365 2°32.799 16.3328 4.334441 34.076692 3.039022
2009-06-22 10:14:59 51°20.37 2°33.134 16.3454 4.332157 34.046201 2.899726
2009-06-22 10:15:59 51°20.378 2°33.47 16.3442 4.331016 34.025763 2.795254
2009-06-22 10:16:59 51°20.388 2°33.808 16.3274 4.32894 34.014455 2.76043
2009-06-22 10:17:59 51°20.397 2°34.145 16.2981 4.326034 34.004858 2.725606
2009-06-22 10:18:59 51°20.409 2°34.476 16.2947 4.323129 34.000113 2.690782
2009-06-22 10:19:59 51°20.419 2°34.808 16.3072 4.321987 33.986604 2.690782
2009-06-22 10:20:59 51°20.433 2°35.144 16.3131 4.320845 33.96894 2.655957
2009-06-22 10:21:59 51°20.444 2°35.484 16.3161 4.319081 33.947197 2.586309
2009-06-22 10:22:59 51°20.454 2°35.826 16.3301 4.316279 33.919109 2.621133
2009-06-22 10:23:59 51°20.482 2°36.165 16.3357 4.315137 33.902165 2.621133
2009-06-22 10:24:59 51°20.521 2°36.5 16.3603 4.313684 33.87697 2.621133
2009-06-22 10:25:59 51°20.555 2°36.832 16.3793 4.312646 33.848546 2.621133
2009-06-22 10:26:59 51°20.578 2°37.166 16.3947 4.311608 33.824286 2.621133
2009-06-22 10:27:59 51°20.594 2°37.499 16.4023 4.310466 33.803266 2.621133
2009-06-22 10:28:59 51°20.608 2°37.832 16.4034 4.308183 33.778436 2.655957
2009-06-22 10:29:59 51°20.646 2°38.159 16.4104 4.305899 33.759794 2.655957
2009-06-22 10:30:59 51°20.698 2°38.482 16.4315 4.304654 33.73584 2.655957
2009-06-22 10:31:59 51°20.753 2°38.804 16.4444 4.302786 33.705768 2.655957
2009-06-22 10:32:59 51°20.807 2°39.126 16.4521 4.300917 33.679143 2.655957
2009-06-22 10:33:59 51°20.86 2°39.449 16.4686 4.298427 33.64982 2.655957
2009-06-22 10:34:59 51°20.925 2°39.768 16.4826 4.296558 33.6205 2.655957
2009-06-22 10:35:59 51°21.014 2°40.073 16.5025 4.29552 33.598465 2.690782
2009-06-22 10:36:59 51°21.118 2°40.368 16.5133 4.29552 33.582115 2.655957
2009-06-22 10:37:59 51°21.222 2°40.667 16.5098 4.29469 33.568053 2.690782
2009-06-22 10:38:59 51°21.335 2°40.956 16.5132 4.293237 33.560801 2.690782
2009-06-22 10:39:59 51°21.449 2°41.245 16.5204 4.291577 33.538812 2.690782
2009-06-22 10:40:59 51°21.576 2°41.521 16.5282 4.288256 33.505728 2.725606
2009-06-22 10:41:59 51°21.704 2°41.798 16.5476 4.285557 33.472667 2.76043
2009-06-22 10:42:59 51°21.829 2°42.08 16.5459 4.284312 33.448243 2.76043
2009-06-22 10:43:59 51°21.955 2°42.363 16.5352 4.282236 33.438258 2.795254
2009-06-22 10:44:59 51°22.08 2°42.647 16.5291 4.281718 33.439825 2.795254
2009-06-22 10:45:59 51°22.231 2°42.897 16.5306 4.280887 33.433933 2.795254
2009-06-22 10:46:59 51°22.394 2°43.126 16.5364 4.279642 33.419677 2.830078
2009-06-22 10:47:59 51°22.561 2°43.353 16.5212 4.279227 33.420794 2.830078
2009-06-22 10:48:59 51°22.727 2°43.575 16.5217 4.278916 33.423494 2.864902
2009-06-22 10:49:59 51°22.89 2°43.798 16.5321 4.278812 33.42191 2.830078
2009-06-22 10:50:59 51°23.055 2°44.017 16.577 4.277048 33.390948 2.795254
2009-06-22 10:51:59 51°23.218 2°44.242 16.6154 4.272896 33.310214 2.795254
2009-06-22 10:52:59 51°23.383 2°44.461 16.6917 4.267188 33.231605 2.795254
2009-06-22 10:53:59 51°23.55 2°44.682 16.7455 4.259612 33.10152 2.76043
2009-06-22 10:54:59 51°23.718 2°44.899 16.7842 4.25214 32.999426 2.725606
2009-06-22 10:55:59 51°23.887 2°45.116 16.8533 4.246432 32.917495 2.725606
2009-06-22 10:56:59 51°24.053 2°45.339 16.8859 4.243007 32.833083 2.725606
2009-06-22 10:57:59 51°24.217 2°45.564 16.8759 4.244252 32.820807 2.725606
2009-06-22 10:58:59 51°24.385 2°45.781 16.8465 4.249959 32.891206 2.76043
2009-06-22 10:59:59 51°24.551 2°46 16.7987 4.253903 32.947771 2.76043
2009-06-22 11:00:59 51°24.717 2°46.224 16.7613 4.253177 32.981877 2.76043
2009-06-22 11:01:59 51°24.879 2°46.458 16.7269 4.252555 32.998376 2.76043
2009-06-22 11:02:59 51°25.039 2°46.689 16.6374 4.257121 33.082564 2.830078
2009-06-22 11:03:59 51°25.2 2°46.918 16.5715 4.267396 33.24214 2.93455
2009-06-22 11:04:59 51°25.362 2°47.14 16.5564 4.26833 33.29198 2.969374
2009-06-22 11:05:59 51°25.521 2°47.366 16.5421 4.265633 33.276544 2.93455
2009-06-22 11:06:59 51°25.68 2°47.592 16.5313 4.260444 33.246122 2.93455
2009-06-22 11:07:59 51°25.851 2°47.797 16.5306 4.256294 33.216657 2.899726
2009-06-22 11:08:59 51°25.98 2°48.034 16.5155 4.253077 33.190625 2.864902
2009-06-22 11:09:59 51°26.007 2°48.248 16.5143 4.249653 33.172863 2.899726
2009-06-22 11:10:59 51°25.99 2°48.401 16.5147 4.248408 33.160659 2.830078
2009-06-22 11:11:59 51°25.994 2°48.518 16.5153 4.248096 33.158616 2.830078
2009-06-22 11:12:59 51°26.004 2°48.569 16.5175 4.2482 33.157506 2.830078
2009-06-22 11:13:59 51°26.013 2°48.605 16.5153 4.248615 33.15911 2.830078
2009-06-22 11:14:59 51°26.022 2°48.638 16.506 4.248304 33.16177 2.830078
2009-06-22 11:15:58 51°26.029 2°48.668 16.506 4.247993 33.165104 2.830078
2009-06-22 11:16:59 51°26.036 2°48.696 16.5117 4.248096 33.166682 2.830078
2009-06-22 11:17:59 51°26.043 2°48.723 16.519 4.248926 33.166528 2.795254
2009-06-22 11:18:59 51°26.049 2°48.748 16.509 4.249341 33.168804 2.830078
2009-06-22 11:19:59 51°26.051 2°48.786 16.506 4.24903 33.172139 2.830078
2009-06-22 11:20:59 51°26.052 2°48.875 16.5188 4.24903 33.171467 2.830078
2009-06-22 11:21:59 51°26.068 2°49.032 16.5329 4.250379 33.173148 2.795254
2009-06-22 11:22:59 51°26.09 2°49.28 16.5554 4.252247 33.176666 2.76043
2009-06-22 11:23:59 51°26.113 2°49.572 16.5924 4.255256 33.183414 2.795254
2009-06-22 11:24:59 51°26.137 2°49.874 16.6191 4.259302 33.184432 2.795254
2009-06-22 11:25:59 51°26.173 2°50.205 16.6396 4.260858 33.181886 2.795254
2009-06-22 11:26:59 51°26.215 2°50.542 16.6571 4.262103 33.173289 2.795254
2009-06-22 11:27:59 51°26.258 2°50.88 16.6856 4.263141 33.166915 2.795254
2009-06-22 11:28:59 51°26.306 2°51.212 16.8625 4.261064 33.102129 2.899726
2009-06-22 11:29:59 51°26.352 2°51.542 16.9737 4.247572 32.848833 3.073846
2009-06-22 11:30:59 51°26.395 2°51.87 17.0462 4.238128 32.682804 3.178318
2009-06-22 11:31:59 51°26.44 2°52.199 17.0791 4.234184 32.599356 3.213142
2009-06-22 11:32:59 51°26.484 2°52.527 17.1076 4.232212 32.559682 3.213142
2009-06-22 11:33:59 51°26.526 2°52.859 17.0557 4.231693 32.547442 3.213142
2009-06-22 11:34:59 51°26.569 2°53.191 16.9828 4.229619 32.580245 3.213142
2009-06-22 11:35:59 51°26.61 2°53.519 16.9352 4.226818 32.61082 3.143494
2009-06-22 11:36:59 51°26.653 2°53.841 17.006 4.2263 32.612219 3.143494
2009-06-22 11:37:59 51°26.695 2°54.164 17.0543 4.22661 32.560859 3.247966
2009-06-22 11:38:59 51°26.742 2°54.492 17.0175 4.225365 32.530669 3.28279
2009-06-22 11:39:59 51°26.783 2°54.828 16.9125 4.222875 32.551468 3.213142
2009-06-22 11:40:59 51°26.828 2°55.162 16.8399 4.219037 32.6005 3.143494
2009-06-22 11:41:59 51°26.854 2°55.494 16.8158 4.216548 32.630017 3.073846
2009-06-22 11:42:59 51°26.872 2°55.823 16.8752 4.21634 32.624949 3.073846
2009-06-22 11:43:59 51°26.892 2°56.15 16.9474 4.218415 32.590557 3.10867
2009-06-22 11:44:59 51°26.909 2°56.481 16.9592 4.221112 32.56947 3.178318
2009-06-22 11:45:59 51°26.928 2°56.816 16.9582 4.22163 32.566124 3.213142
2009-06-22 11:46:59 51°26.947 2°57.153 16.9239 4.221319 32.575819 3.178318
2009-06-22 11:47:59 51°26.963 2°57.489 16.9106 4.220075 32.587907 3.143494
2009-06-22 11:48:59 51°26.981 2°57.825 16.882 4.220282 32.598834 3.10867
2009-06-22 11:49:59 51°26.999 2°58.159 16.8792 4.219764 32.620494 3.073846
2009-06-22 11:50:59 51°27.033 2°58.492 16.9027 4.220386 32.614754 3.073846
2009-06-22 11:51:59 51°27.086 2°58.82 16.8947 4.222046 32.61601 3.073846
2009-06-22 11:52:59 51°27.147 2°59.143 16.8766 4.222669 32.633146 3.039022
2009-06-22 11:53:59 51°27.238 2°59.451 16.8693 4.222877 32.648022 3.004198
2009-06-22 11:54:59 51°27.331 2°59.753 16.9281 4.224018 32.654603 2.969374
2009-06-22 11:55:59 51°27.412 3°0.065 16.9695 4.226923 32.63129 3.004198
2009-06-22 11:56:59 51°27.495 3°0.379 17.0132 4.227026 32.598268 3.10867
2009-06-22 11:57:59 51°27.575 3°0.697 17.0864 4.226299 32.549086 3.247966
2009-06-22 11:58:59 51°27.659 3°1.016 17.1156 4.224741 32.48709 3.352439
2009-06-22 11:59:59 51°27.743 3°1.339 17.1387 4.222458 32.448748 3.456911
2009-06-22 12:00:59 51°27.822 3°1.667 17.1319 4.221005 32.421441 3.526559
2009-06-22 12:01:59 51°27.903 3°1.994 17.0977 4.219657 32.422128 3.596207
2009-06-22 12:02:59 51°27.986 3°2.319 17.0724 4.217478 32.427314 3.665855
2009-06-22 12:03:59 51°28.061 3°2.648 17.0465 4.216026 32.440693 3.596207
2009-06-22 12:04:59 51°28.132 3°2.937 17.0582 4.215611 32.448125 3.596207
2009-06-22 12:05:59 51°28.18 3°3.118 17.0655 4.217894 32.454798 3.596207
2009-06-22 12:06:59 51°28.218 3°3.269 17.0764 4.218931 32.457889 3.596207
2009-06-22 12:07:59 51°28.253 3°3.407 17.0957 4.220695 32.461396 3.526559
2009-06-22 12:08:59 51°28.282 3°3.495 17.1104 4.22277 32.464989 3.491735
2009-06-22 12:09:59 51°28.299 3°3.539 17.1141 4.224119 32.46881 3.456911
2009-06-22 12:10:59 51°28.312 3°3.575 17.1215 4.224637 32.469385 3.491735
2009-06-22 12:11:59 51°28.323 3°3.609 17.1194 4.225675 32.475058 3.422087
2009-06-22 12:12:59 51°28.333 3°3.641 17.1196 4.22609 32.477974 3.422087
2009-06-22 12:13:59 51°28.342 3°3.679 17.127 4.226505 32.479596 3.352439
2009-06-22 12:14:59 51°28.328 3°3.768 17.1316 4.227024 32.480816 3.352439
2009-06-22 12:15:59 51°28.254 3°3.971 17.1253 4.227854 32.486 3.317614
2009-06-22 12:16:59 51°28.149 3°4.237 17.1182 4.227958 32.488183 3.387263
2009-06-22 12:17:59 51°28.04 3°4.509 17.124 4.228476 32.492635 3.317614
2009-06-22 12:18:59 51°27.933 3°4.783 17.111 4.228061 32.49748 3.317614
2009-06-22 12:19:59 51°27.823 3°5.053 17.1151 4.225986 32.486782 3.317614
2009-06-22 12:20:59 51°27.713 3°5.325 17.1157 4.224119 32.462348 3.387263
2009-06-22 12:21:59 51°27.603 3°5.589 17.0816 4.220176 32.436262 3.596207
2009-06-22 12:22:59 51°27.486 3°5.847 17.0544 4.214469 32.413751 3.770327
2009-06-22 12:23:59 51°27.375 3°6.112 17.0748 4.210631 32.393051 3.909623
2009-06-22 12:24:58 51°27.269 3°6.376 17.1105 4.209074 32.35904 4.118568
2009-06-22 12:25:59 51°27.16 3°6.646 17.1405 4.20731 32.317508 4.327512
2009-06-22 12:26:59 51°27.044 3°6.901 17.1723 4.205338 32.276196 4.640929
2009-06-22 12:27:59 51°26.928 3°7.153 17.2086 4.2043 32.241025 4.884697
2009-06-22 12:28:59 51°26.817 3°7.414 17.2478 4.203262 32.202722 5.128465
2009-06-22 12:29:59 51°26.705 3°7.674 17.2858 4.202016 32.163358 5.441882
2009-06-22 12:30:59 51°26.607 3°7.915 17.3211 4.20077 32.120891 5.720474
2009-06-22 12:31:59 51°26.533 3°8.111 17.3456 4.200874 32.098268 5.999067
2009-06-22 12:32:59 51°26.498 3°8.235 17.3563 4.200977 32.082021 6.208011
2009-06-22 12:33:58 51°26.469 3°8.312 17.3685 4.201081 32.074029 6.416955
2009-06-22 12:34:59 51°26.456 3°8.361 17.3739 4.201496 32.069962 6.486603
2009-06-22 12:35:59 51°26.454 3°8.403 17.3797 4.201599 32.066412 6.695548
2009-06-22 12:36:59 51°26.459 3°8.439 17.3862 4.201807 32.063747 6.556251
2009-06-22 12:37:59 51°26.467 3°8.471 17.3912 4.201807 32.059315 6.416955
2009-06-22 12:38:59 51°26.474 3°8.504 17.3975 4.202118 32.05627 6.242835
2009-06-22 12:39:59 51°26.447 3°8.633 17.4082 4.202533 32.055374 6.103539
2009-06-22 12:40:59 51°26.339 3°8.825 17.4078 4.202948 32.052582 5.999067
2009-06-22 12:41:59 51°26.225 3°9.075 17.414 4.202844 32.049801 6.242835
2009-06-22 12:42:59 51°26.122 3°9.338 17.4205 4.202844 32.044743 6.242835
2009-06-22 12:43:59 51°26.031 3°9.612 17.4178 4.203051 32.044613 6.451779
2009-06-22 12:44:59 51°25.948 3°9.888 17.4117 4.202533 32.042094 6.591076
2009-06-22 12:45:59 51°25.859 3°10.163 17.4082 4.201703 32.039455 6.591076
2009-06-22 12:46:59 51°25.771 3°10.438 17.4057 4.201288 32.037818 6.660724
2009-06-22 12:47:59 51°25.682 3°10.709 17.4046 4.200665 32.033784 6.695548
2009-06-22 12:48:59 51°25.581 3°10.97 17.4026 4.200146 32.030632 6.765196
2009-06-22 12:49:59 51°25.471 3°11.223 17.4034 4.199524 32.025965 6.904492
2009-06-22 12:50:59 51°25.332 3°11.435 17.4048 4.199109 32.021169 7.008964
2009-06-22 12:51:59 51°25.176 3°11.619 17.4084 4.199005 32.019654 7.252733
2009-06-22 12:52:59 51°25.009 3°11.772 17.4203 4.199524 32.020278 7.322381
2009-06-22 12:53:59 51°24.832 3°11.9 17.4426 4.200042 32.011431 7.14826
2009-06-22 12:54:59 51°24.655 3°12.028 17.4406 4.195477 31.959993 6.451779
2009-06-22 12:55:59 51°24.48 3°12.165 17.4305 4.187903 31.903153 6.033891
2009-06-22 12:56:59 51°24.304 3°12.296 17.4495 4.174208 31.786126 5.372234
2009-06-22 12:57:59 51°24.126 3°12.421 17.4601 4.158645 31.639591 5.093641
2009-06-22 12:58:59 51°23.947 3°12.537 17.4749 4.14298 31.498599 5.023993
2009-06-22 12:59:59 51°23.769 3°12.659 17.4727 4.132813 31.402505 5.058817
2009-06-22 13:00:59 51°23.588 3°12.765 17.4615 4.125344 31.346621 5.232937
2009-06-22 13:01:59 51°23.407 3°12.867 17.453 4.120364 31.313678 5.372234
2009-06-22 13:02:59 51°23.231 3°12.963 17.4806 4.119223 31.303391 5.267761
2009-06-22 13:03:59 51°23.073 3°13.056 17.5206 4.121609 31.294645 5.302586
2009-06-22 13:04:59 51°22.927 3°13.121 17.5755 4.123994 31.282847 5.407058
2009-06-22 13:05:59 51°22.782 3°13.163 17.6022 4.119637 31.209204 5.616002
2009-06-22 13:06:59 51°22.676 3°13.203 17.5984 4.09723 31.009057 6.208011
2009-06-22 13:07:59 51°22.625 3°13.234 17.6016 4.083641 30.894439 6.451779
2009-06-22 13:08:59 51°22.613 3°13.266 17.6006 4.075861 30.826429 6.451779
2009-06-22 13:09:59 51°22.603 3°13.302 17.6033 4.071297 30.788565 6.486603
2009-06-22 13:10:59 51°22.596 3°13.339 17.6126 4.067148 30.74938 6.242835
2009-06-22 13:11:59 51°22.592 3°13.374 17.6174 4.063621 30.712444 6.033891
2009-06-22 13:12:59 51°22.59 3°13.407 17.6271 4.060613 30.683504 5.790122
2009-06-22 13:13:59 51°22.578 3°13.461 17.6367 4.059576 30.66816 5.616002
2009-06-22 13:14:59 51°22.523 3°13.479 17.6241 4.057812 30.649115 5.755298
2009-06-22 13:15:59 51°22.518 3°13.332 17.6105 4.052938 30.620084 6.312483
2009-06-22 13:16:59 51°22.532 3°13.063 17.6049 4.051278 30.610313 6.521427
2009-06-22 13:17:59 51°22.546 3°12.78 17.586 4.049619 30.60654 7.183084
2009-06-22 13:18:59 51°22.547 3°12.494 17.5851 4.047959 30.602165 7.426853
2009-06-22 13:19:59 51°22.549 3°12.209 17.5814 4.0463 30.588787 7.600973
2009-06-22 13:20:59 51°22.538 3°11.926 17.5923 4.045989 30.587366 7.705445
2009-06-22 13:21:59 51°22.503 3°11.649 17.6014 4.048374 30.598458 7.496501
2009-06-22 13:22:59 51°22.471 3°11.373 17.6239 4.051797 30.621881 7.392029
2009-06-22 13:23:59 51°22.441 3°11.096 17.6394 4.058124 30.654135 7.357205
2009-06-22 13:24:59 51°22.413 3°10.816 17.643 4.061858 30.679558 7.287557
2009-06-22 13:25:59 51°22.381 3°10.535 17.6488 4.064658 30.699523 7.252733
2009-06-22 13:26:59 51°22.349 3°10.252 17.6563 4.067977 30.720242 7.217908
2009-06-22 13:27:59 51°22.319 3°9.969 17.6446 4.069844 30.735955 7.252733
2009-06-22 13:28:59 51°22.285 3°9.688 17.6415 4.070052 30.743118 7.252733
2009-06-22 13:29:59 51°22.251 3°9.408 17.6385 4.070674 30.749561 7.14826
2009-06-22 13:30:59 51°22.217 3°9.126 17.6372 4.071919 30.764257 7.14826
2009-06-22 13:31:59 51°22.18 3°8.844 17.6383 4.074512 30.785489 7.183084
2009-06-22 13:32:59 51°22.146 3°8.559 17.6498 4.077417 30.809344 7.078612
2009-06-22 13:33:59 51°22.115 3°8.274 17.6939 4.082499 30.831019 6.97414
2009-06-22 13:34:59 51°22.084 3°7.989 17.7215 4.085299 30.828656 6.869668
2009-06-22 13:35:59 51°22.052 3°7.706 17.7452 4.08561 30.813805 6.834844
2009-06-22 13:36:59 51°22.018 3°7.423 17.7466 4.087062 30.80856 6.730372
2009-06-22 13:37:59 51°21.986 3°7.139 17.7169 4.086543 30.810819 6.869668
2009-06-22 13:38:59 51°21.935 3°6.867 17.7304 4.086129 30.824187 6.834844
2009-06-22 13:39:59 51°21.875 3°6.598 17.7427 4.086751 30.814969 6.6259
2009-06-22 13:40:59 51°21.817 3°6.326 17.7441 4.089966 30.837178 6.486603
2009-06-22 13:41:59 51°21.759 3°6.056 17.7511 4.089551 30.830681 6.451779
2009-06-22 13:42:59 51°21.7 3°5.785 17.7529 4.090277 30.831967 6.416955
2009-06-22 13:43:59 51°21.643 3°5.513 17.7494 4.087269 30.810303 6.416955
2009-06-22 13:44:59 51°21.587 3°5.239 17.7458 4.084676 30.790319 6.451779
2009-06-22 13:45:59 51°21.534 3°4.963 17.7632 4.087166 30.80883 6.416955
2009-06-22 13:46:59 51°21.478 3°4.69 17.7681 4.087995 30.800771 6.451779
2009-06-22 13:47:59 51°21.421 3°4.417 17.7745 4.08478 30.774969 6.347307
2009-06-22 13:48:59 51°21.363 3°4.146 17.7877 4.082394 30.745339 6.416955
2009-06-22 13:49:59 51°21.307 3°3.873 17.7733 4.079904 30.719052 6.556251
2009-06-22 13:50:59 51°21.249 3°3.602 17.7574 4.075859 30.700674 6.695548
2009-06-22 13:51:59 51°21.19 3°3.33 17.7357 4.072851 30.686801 6.660724
2009-06-22 13:52:59 51°21.132 3°3.059 17.7227 4.069117 30.669818 6.730372
2009-06-22 13:53:59 51°21.077 3°2.784 17.7098 4.065902 30.651192 6.834844
2009-06-22 13:54:59 51°21.018 3°2.511 17.6987 4.06279 30.635228 6.939316
2009-06-22 13:55:59 51°20.965 3°2.231 17.6744 4.060301 30.622692 7.043788
2009-06-22 13:56:59 51°20.91 3°1.952 17.6461 4.057604 30.619784 7.14826
2009-06-22 13:57:59 51°20.854 3°1.673 17.6389 4.055012 30.615353 7.322381
2009-06-22 13:58:59 51°20.795 3°1.395 17.6617 4.053974 30.60483 7.322381
2009-06-22 13:59:59 51°20.738 3°1.114 17.6781 4.054804 30.596836 7.322381
2009-06-22 14:00:59 51°20.685 3°0.831 17.6942 4.055426 30.593091 7.322381
2009-06-22 14:01:59 51°20.63 3°0.553 17.7198 4.056774 30.590067 7.287557
2009-06-22 14:02:59 51°20.573 3°0.277 17.7565 4.060715 30.601652 7.14826
2009-06-22 14:03:59 51°20.519 3°0 17.7848 4.067146 30.629938 6.834844
2009-06-22 14:04:59 51°20.461 2°59.724 17.806 4.080734 30.721223 6.382131
2009-06-22 14:05:59 51°20.407 2°59.444 17.7856 4.10677 30.934962 5.755298
2009-06-22 14:06:59 51°20.349 2°59.164 17.7661 4.126896 31.117981 5.232937
2009-06-22 14:07:59 51°20.288 2°58.885 17.7378 4.139137 31.241043 4.884697
2009-06-22 14:08:59 51°20.23 2°58.602 17.7046 4.145881 31.319826 4.849873
2009-06-22 14:09:59 51°20.172 2°58.319 17.6863 4.153973 31.407659 4.745401
2009-06-22 14:10:59 51°20.115 2°58.036 17.7 4.164659 31.503345 4.466808
2009-06-22 14:11:59 51°20.056 2°57.753 17.6892 4.176072 31.594728 4.153392
2009-06-22 14:12:59 51°19.997 2°57.468 17.6799 4.183231 31.661977 4.014096
2009-06-22 14:13:59 51°19.942 2°57.178 17.6903 4.19039 31.72617 3.874799
2009-06-22 14:14:59 51°19.884 2°56.892 17.6871 4.199831 31.803465 3.770327
2009-06-22 14:15:59 51°19.828 2°56.604 17.692 4.209481 31.884405 3.596207
2009-06-22 14:16:59 51°19.769 2°56.316 17.6775 4.216432 31.943184 3.456911
2009-06-22 14:17:59 51°19.71 2°56.028 17.6752 4.222347 32.005104 3.317614
2009-06-22 14:18:59 51°19.649 2°55.743 17.6796 4.23044 32.069831 3.178318
2009-06-22 14:19:59 51°19.587 2°55.46 17.6863 4.238638 32.138589 3.10867
2009-06-22 14:20:59 51°19.524 2°55.175 17.7013 4.242788 32.161767 3.039022
2009-06-22 14:21:59 51°19.466 2°54.887 17.6769 4.246523 32.192127 3.004198
2009-06-22 14:22:59 51°19.408 2°54.597 17.6068 4.249741 32.253442 2.969374
2009-06-22 14:23:59 51°19.352 2°54.306 17.551 4.251091 32.318707 3.039022
2009-06-22 14:24:59 51°19.295 2°54.014 17.5788 4.25244 32.347943 3.073846
2009-06-22 14:25:59 51°19.238 2°53.721 17.5933 4.2541 32.345527 3.073846
2009-06-22 14:26:59 51°19.179 2°53.431 17.5558 4.257213 32.363066 3.143494
2009-06-22 14:27:59 51°19.117 2°53.145 17.4731 4.263647 32.460387 3.178318
2009-06-22 14:28:59 51°19.058 2°52.856 17.398 4.269667 32.581406 3.28279
2009-06-22 14:29:59 51°18.99 2°52.572 17.3471 4.276413 32.692404 3.317614
2009-06-22 14:30:59 51°18.916 2°52.291 17.3035 4.280565 32.766043 3.28279
2009-06-22 14:31:59 51°18.838 2°52.015 17.2782 4.281914 32.807431 3.247966
2009-06-22 14:32:59 51°18.756 2°51.743 17.2492 4.282226 32.8322 3.28279
2009-06-22 14:33:59 51°18.688 2°51.527 17.219 4.281085 32.840644 3.28279
2009-06-22 14:34:59 51°18.646 2°51.384 17.2046 4.27818 32.841792 3.352439
2009-06-22 14:35:59 51°18.616 2°51.284 17.2077 4.277453 32.844036 3.352439
2009-06-22 14:36:59 51°18.58 2°51.203 17.2358 4.277038 32.830047 3.317614
2009-06-22 14:37:59 51°18.539 2°51.104 17.2465 4.276727 32.8124 3.352439
2009-06-22 14:38:59 51°18.494 2°51.031 17.263 4.275689 32.789848 3.28279
2009-06-22 14:39:59 51°18.485 2°51.019 17.2646 4.276 32.783416 3.247966
2009-06-22 14:40:59 51°18.483 2°51.016 17.2627 4.276207 32.785844 3.28279
2009-06-22 14:41:59 51°18.488 2°51.011 17.2607 4.276726 32.791588 3.317614
2009-06-22 14:42:59 51°18.492 2°51.004 17.246 4.277245 32.801234 3.317614
2009-06-22 14:43:59 51°18.496 2°51 17.2257 4.278179 32.819646 3.352439
2009-06-22 14:44:59 51°18.467 2°51.031 17.1942 4.280255 32.858941 3.28279
2009-06-22 14:45:59 51°18.383 2°51.175 17.1765 4.28119 32.887842 3.247966
2009-06-22 14:46:59 51°18.257 2°51.395 17.1505 4.282331 32.912676 3.28279
2009-06-22 14:47:59 51°18.119 2°51.598 17.138 4.282851 32.936115 3.28279
2009-06-22 14:48:59 51°17.963 2°51.76 17.1314 4.283266 32.949512 3.317614
2009-06-22 14:49:59 51°17.801 2°51.91 17.1462 4.285549 32.967825 3.28279
2009-06-22 14:50:59 51°17.638 2°52.06 17.1648 4.288558 32.983854 3.28279
2009-06-22 14:51:59 51°17.475 2°52.214 17.1904 4.29302 33.005799 3.28279
2009-06-22 14:52:59 51°17.311 2°52.362 17.2208 4.29852 33.030739 3.213142
2009-06-22 14:53:59 51°17.149 2°52.519 17.2089 4.297793 33.009424 3.178318
2009-06-22 14:54:59 51°17.009 2°52.719 17.2313 4.295095 32.985611 3.10867
2009-06-22 14:55:59 51°16.898 2°52.963 17.2473 4.297482 32.993654 3.10867
2009-06-22 14:56:59 51°16.788 2°53.211 17.2879 4.300491 33.004417 3.039022
2009-06-22 14:57:59 51°16.671 2°53.453 17.399 4.29883 32.941194 2.969374
2009-06-22 14:58:59 51°16.556 2°53.697 17.4931 4.292498 32.796787 2.864902
2009-06-22 14:59:59 51°16.454 2°53.909 17.5487 4.29011 32.712536 2.830078
2009-06-22 15:00:59 51°16.373 2°54.076 17.5688 4.285336 32.636548 2.795254
2009-06-22 15:01:59 51°16.33 2°54.177 17.5824 4.280665 32.582091 2.76043
2009-06-22 15:02:59 51°16.297 2°54.239 17.601 4.278901 32.553024 2.76043
2009-06-22 15:03:59 51°16.275 2°54.279 17.6148 4.277033 32.525017 2.76043
2009-06-22 15:04:59 51°16.269 2°54.282 17.6301 4.27558 32.501834 2.725606
2009-06-22 15:05:59 51°16.264 2°54.278 17.6483 4.27475 32.480131 2.725606
2009-06-22 15:06:59 51°16.259 2°54.272 17.6633 4.273712 32.458597 2.725606
2009-06-22 15:07:59 51°16.253 2°54.264 17.6724 4.272674 32.438988 2.690782
2009-06-22 15:08:59 51°16.245 2°54.258 17.6804 4.272466 32.429605 2.690782
2009-06-22 15:09:59 51°16.213 2°54.257 17.6928 4.271739 32.417098 2.655957
2009-06-22 15:10:59 51°16.104 2°54.22 17.6929 4.270909 32.403718 2.690782
2009-06-22 15:11:59 51°15.921 2°54.169 17.7133 4.269975 32.390732 2.725606
2009-06-22 15:12:59 51°15.73 2°54.161 17.741 4.267173 32.348005 2.795254
2009-06-22 15:13:59 51°15.537 2°54.159 17.7828 4.263022 32.291397 2.899726
2009-06-22 15:14:59 51°15.344 2°54.159 17.8631 4.262606 32.242532 3.039022
2009-06-22 15:15:59 51°15.15 2°54.167 17.8906 4.263228 32.198809 3.247966
2009-06-22 15:16:59 51°14.964 2°54.212 18.1116 0.143477 0.83981 6.347307
2009-06-22 15:17:59 51°14.786 2°54.307 18.1957 0.118467 0.68742 6.103539
2009-06-22 15:18:59 51°14.628 2°54.462 18.2791 0.102309 0.589955 5.964243
2009-06-22 15:19:59 51°14.502 2°54.668 18.3396 0.097575 0.56156 5.894594
2009-06-22 15:20:59 51°14.402 2°54.908 18.4172 0.098089 0.56461 5.894594
2009-06-22 15:21:59 51°14.304 2°55.151 18.492 0.092017 0.528238 5.894594
2009-06-22 15:22:59 51°14.196 2°55.348 18.5405 0.091708 0.526317 5.894594
2009-06-22 15:23:59 51°14.063 2°55.462 18.6175 0.090165 0.517072 5.894594
2009-06-22 15:24:59 51°13.935 2°55.551 18.681 0.088827 0.509044 5.894594
2009-06-22 15:25:59 51°13.827 2°55.632 18.7286 0.085945 0.491836 5.894594
2009-06-22 15:26:59 51°13.744 2°55.736 18.7885 0.084196 0.481401 5.894594
2009-06-22 15:27:59 51°13.695 2°55.837 18.8805 0.083269 0.47586 5.894594
2009-06-22 15:28:59 51°13.67 2°55.926 18.9389 0.083887 0.479461 5.85977
2009-06-22 15:29:59 51°13.663 2°55.955 19.0398 0.08152 0.465403 5.894594